sensor_id;sensor_type;location;lat;lon;timestamp;pressure;altitude;pressure_sealevel;temperature;humidity
59951;BME280;45812;53.540;9.774;2023-12-28T00:00:37;100594.94;;;6.47;100.00
59951;BME280;45812;53.540;9.774;2023-12-28T00:03:02;100583.00;;;6.52;100.00
59951;BME280;45812;53.540;9.774;2023-12-28T00:05:27;100625.84;;;6.46;100.00
59951;BME280;45812;53.540;9.774;2023-12-28T00:07:53;100598.31;;;6.39;100.00
59951;BME280;45812;53.540;9.774;2023-12-28T00:10:24;100601.34;;;6.44;100.00
59951;BME280;45812;53.540;9.774;2023-12-28T00:12:49;100591.63;;;6.45;100.00
59951;BME280;45812;53.540;9.774;2023-12-28T00:15:14;100593.84;;;6.40;100.00
59951;BME280;45812;53.540;9.774;2023-12-28T00:17:39;100592.19;;;6.38;100.00
59951;BME280;45812;53.540;9.774;2023-12-28T00:20:05;100590.78;;;6.44;100.00
59951;BME280;45812;53.540;9.774;2023-12-28T00:22:31;100595.09;;;6.45;100.00
59951;BME280;45812;53.540;9.774;2023-12-28T00:24:56;100608.59;;;6.42;100.00
59951;BME280;45812;53.540;9.774;2023-12-28T00:27:21;100609.56;;;6.41;100.00
59951;BME280;45812;53.540;9.774;2023-12-28T00:29:46;100599.97;;;6.40;100.00
59951;BME280;45812;53.540;9.774;2023-12-28T00:32:11;100606.09;;;6.41;100.00
59951;BME280;45812;53.540;9.774;2023-12-28T00:34:37;100605.41;;;6.38;100.00
59951;BME280;45812;53.540;9.774;2023-12-28T00:37:02;100625.16;;;6.34;100.00
59951;BME280;45812;53.540;9.774;2023-12-28T00:39:27;100605.25;;;6.30;100.00
59951;BME280;45812;53.540;9.774;2023-12-28T00:41:53;100633.34;;;6.31;100.00
59951;BME280;45812;53.540;9.774;2023-12-28T00:44:18;100610.41;;;6.32;100.00
59951;BME280;45812;53.540;9.774;2023-12-28T00:46:43;100602.22;;;6.35;100.00
59951;BME280;45812;53.540;9.774;2023-12-28T00:49:08;100626.41;;;6.40;100.00
59951;BME280;45812;53.540;9.774;2023-12-28T00:51:34;100605.13;;;6.42;100.00
59951;BME280;45812;53.540;9.774;2023-12-28T00:53:59;100611.66;;;6.37;100.00
59951;BME280;45812;53.540;9.774;2023-12-28T00:56:24;100630.88;;;6.40;100.00
59951;BME280;45812;53.540;9.774;2023-12-28T00:58:50;100601.94;;;6.38;100.00
59951;BME280;45812;53.540;9.774;2023-12-28T01:01:15;100601.06;;;6.47;100.00
59951;BME280;45812;53.540;9.774;2023-12-28T01:03:40;100608.16;;;6.47;100.00
59951;BME280;45812;53.540;9.774;2023-12-28T01:06:06;100612.63;;;6.46;100.00
59951;BME280;45812;53.540;9.774;2023-12-28T01:08:31;100609.97;;;6.46;100.00
59951;BME280;45812;53.540;9.774;2023-12-28T01:10:59;100612.06;;;6.52;100.00
59951;BME280;45812;53.540;9.774;2023-12-28T01:13:24;100619.56;;;6.57;100.00
59951;BME280;45812;53.540;9.774;2023-12-28T01:15:49;100628.06;;;6.60;100.00
59951;BME280;45812;53.540;9.774;2023-12-28T01:18:14;100629.16;;;6.67;100.00
59951;BME280;45812;53.540;9.774;2023-12-28T01:20:40;100612.59;;;6.75;100.00
59951;BME280;45812;53.540;9.774;2023-12-28T01:23:05;100629.28;;;6.76;100.00
59951;BME280;45812;53.540;9.774;2023-12-28T01:25:30;100628.47;;;6.75;100.00
59951;BME280;45812;53.540;9.774;2023-12-28T01:27:55;100618.03;;;6.74;100.00
59951;BME280;45812;53.540;9.774;2023-12-28T01:30:21;100632.91;;;6.75;100.00
59951;BME280;45812;53.540;9.774;2023-12-28T01:32:46;100632.50;;;6.70;100.00
59951;BME280;45812;53.540;9.774;2023-12-28T01:35:11;100639.19;;;6.74;100.00
59951;BME280;45812;53.540;9.774;2023-12-28T01:37:36;100645.31;;;6.74;100.00
59951;BME280;45812;53.540;9.774;2023-12-28T01:40:02;100663.97;;;6.73;100.00
59951;BME280;45812;53.540;9.774;2023-12-28T01:42:27;100658.53;;;6.74;100.00
59951;BME280;45812;53.540;9.774;2023-12-28T01:44:55;100656.00;;;6.82;100.00
59951;BME280;45812;53.540;9.774;2023-12-28T01:47:20;100654.47;;;6.80;100.00
59951;BME280;45812;53.540;9.774;2023-12-28T01:49:46;100655.31;;;6.80;100.00
59951;BME280;45812;53.540;9.774;2023-12-28T01:52:11;100635.28;;;6.78;100.00
59951;BME280;45812;53.540;9.774;2023-12-28T01:54:37;100657.56;;;6.75;100.00
59951;BME280;45812;53.540;9.774;2023-12-28T01:57:03;100684.84;;;6.76;100.00
59951;BME280;45812;53.540;9.774;2023-12-28T01:59:29;100654.63;;;6.78;100.00
59951;BME280;45812;53.540;9.774;2023-12-28T02:01:55;100671.19;;;6.80;100.00
59951;BME280;45812;53.540;9.774;2023-12-28T02:04:20;100666.59;;;6.82;100.00
59951;BME280;45812;53.540;9.774;2023-12-28T02:06:54;100667.28;;;6.84;100.00
59951;BME280;45812;53.540;9.774;2023-12-28T02:09:21;100642.78;;;6.92;100.00
59951;BME280;45812;53.540;9.774;2023-12-28T02:11:46;100659.19;;;6.86;100.00
59951;BME280;45812;53.540;9.774;2023-12-28T02:14:11;100674.53;;;6.82;100.00
59951;BME280;45812;53.540;9.774;2023-12-28T02:16:40;100668.41;;;6.82;100.00
59951;BME280;45812;53.540;9.774;2023-12-28T02:19:28;100672.84;;;6.81;100.00
59951;BME280;45812;53.540;9.774;2023-12-28T02:21:58;100663.09;;;6.82;100.00
59951;BME280;45812;53.540;9.774;2023-12-28T02:24:24;100670.34;;;6.80;100.00
59951;BME280;45812;53.540;9.774;2023-12-28T02:26:49;100674.66;;;6.81;100.00
59951;BME280;45812;53.540;9.774;2023-12-28T02:29:14;100672.84;;;6.81;100.00
59951;BME280;45812;53.540;9.774;2023-12-28T02:31:46;100679.81;;;6.82;100.00
59951;BME280;45812;53.540;9.774;2023-12-28T02:34:19;100684.28;;;6.82;100.00
59951;BME280;45812;53.540;9.774;2023-12-28T02:36:47;100674.38;;;6.84;100.00
59951;BME280;45812;53.540;9.774;2023-12-28T02:39:15;100692.06;;;6.83;100.00
59951;BME280;45812;53.540;9.774;2023-12-28T02:41:43;100678.00;;;6.83;100.00
59951;BME280;45812;53.540;9.774;2023-12-28T02:44:08;100676.47;;;6.80;100.00
59951;BME280;45812;53.540;9.774;2023-12-28T02:46:34;100681.19;;;6.86;100.00
59951;BME280;45812;53.540;9.774;2023-12-28T02:48:59;100671.72;;;6.84;100.00
59951;BME280;45812;53.540;9.774;2023-12-28T02:51:25;100668.41;;;6.82;100.00
59951;BME280;45812;53.540;9.774;2023-12-28T02:53:50;100665.75;;;6.82;100.00
59951;BME280;45812;53.540;9.774;2023-12-28T02:56:15;100669.22;;;6.82;100.00
59951;BME280;45812;53.540;9.774;2023-12-28T02:58:40;100680.94;;;6.80;100.00
59951;BME280;45812;53.540;9.774;2023-12-28T03:01:06;100672.31;;;6.78;100.00
59951;BME280;45812;53.540;9.774;2023-12-28T03:03:31;100676.47;;;6.80;100.00
59951;BME280;45812;53.540;9.774;2023-12-28T03:05:56;100675.50;;;6.81;100.00
59951;BME280;45812;53.540;9.774;2023-12-28T03:08:21;100678.69;;;6.85;100.00
59951;BME280;45812;53.540;9.774;2023-12-28T03:10:46;100673.53;;;6.83;100.00
59951;BME280;45812;53.540;9.774;2023-12-28T03:13:12;100677.84;;;6.84;100.00
59951;BME280;45812;53.540;9.774;2023-12-28T03:15:37;100678.28;;;6.89;100.00
59951;BME280;45812;53.540;9.774;2023-12-28T03:18:02;100680.34;;;6.86;100.00
59951;BME280;45812;53.540;9.774;2023-12-28T03:20:28;100678.16;;;6.81;100.00
59951;BME280;45812;53.540;9.774;2023-12-28T03:22:53;100671.59;;;6.85;100.00
59951;BME280;45812;53.540;9.774;2023-12-28T03:25:18;100675.91;;;6.86;100.00
59951;BME280;45812;53.540;9.774;2023-12-28T03:27:43;100669.09;;;6.84;100.00
59951;BME280;45812;53.540;9.774;2023-12-28T03:30:09;100676.19;;;6.83;100.00
59951;BME280;45812;53.540;9.774;2023-12-28T03:32:34;100672.84;;;6.81;100.00
59951;BME280;45812;53.540;9.774;2023-12-28T03:35:00;100663.09;;;6.82;100.00
59951;BME280;45812;53.540;9.774;2023-12-28T03:37:25;100681.03;;;6.88;100.00
59951;BME280;45812;53.540;9.774;2023-12-28T03:39:51;100675.91;;;6.86;100.00
59951;BME280;45812;53.540;9.774;2023-12-28T03:42:16;100674.66;;;6.81;100.00
59951;BME280;45812;53.540;9.774;2023-12-28T03:44:41;100670.34;;;6.80;100.00
59951;BME280;45812;53.540;9.774;2023-12-28T03:47:06;100675.66;;;6.80;100.00
59951;BME280;45812;53.540;9.774;2023-12-28T03:49:32;100676.34;;;6.82;100.00
59951;BME280;45812;53.540;9.774;2023-12-28T03:51:57;100687.59;;;6.84;100.00
59951;BME280;45812;53.540;9.774;2023-12-28T03:54:22;100683.00;;;6.86;100.00
59951;BME280;45812;53.540;9.774;2023-12-28T03:56:48;100676.19;;;6.83;100.00
59951;BME280;45812;53.540;9.774;2023-12-28T03:59:13;100677.16;;;6.82;100.00
59951;BME280;45812;53.540;9.774;2023-12-28T04:01:40;100678.28;;;6.80;100.00
59951;BME280;45812;53.540;9.774;2023-12-28T04:04:05;100667.56;;;6.81;100.00
59951;BME280;45812;53.540;9.774;2023-12-28T04:06:30;100669.38;;;6.81;100.00
59951;BME280;45812;53.540;9.774;2023-12-28T04:08:56;100674.97;;;6.78;100.00
59951;BME280;45812;53.540;9.774;2023-12-28T04:11:21;100682.31;;;6.84;100.00
59951;BME280;45812;53.540;9.774;2023-12-28T04:13:46;100669.53;;;6.79;100.00
59951;BME280;45812;53.540;9.774;2023-12-28T04:16:12;100672.72;;;6.83;100.00
59951;BME280;45812;53.540;9.774;2023-12-28T04:18:38;100663.66;;;6.85;100.00
59951;BME280;45812;53.540;9.774;2023-12-28T04:21:03;100664.63;;;6.84;100.00
59951;BME280;45812;53.540;9.774;2023-12-28T04:23:29;100662.53;;;6.88;100.00
59951;BME280;45812;53.540;9.774;2023-12-28T04:25:54;100645.81;;;6.87;100.00
59951;BME280;45812;53.540;9.774;2023-12-28T04:28:19;100655.56;;;6.87;100.00
59951;BME280;45812;53.540;9.774;2023-12-28T04:30:44;100648.47;;;6.87;100.00
59951;BME280;45812;53.540;9.774;2023-12-28T04:33:10;100664.50;;;6.86;100.00
59951;BME280;45812;53.540;9.774;2023-12-28T04:35:35;100663.50;;;6.87;100.00
59951;BME280;45812;53.540;9.774;2023-12-28T04:38:00;100657.66;;;6.83;100.00
59951;BME280;45812;53.540;9.774;2023-12-28T04:40:25;100653.91;;;6.86;100.00
59951;BME280;45812;53.540;9.774;2023-12-28T04:42:51;100670.06;;;6.83;100.00
59951;BME280;45812;53.540;9.774;2023-12-28T04:45:16;100662.56;;;6.78;100.00
59951;BME280;45812;53.540;9.774;2023-12-28T04:47:41;100663.69;;;6.76;100.00
59951;BME280;45812;53.540;9.774;2023-12-28T04:50:07;100658.69;;;6.73;100.00
59951;BME280;45812;53.540;9.774;2023-12-28T04:52:32;100660.88;;;6.67;100.00
59951;BME280;45812;53.540;9.774;2023-12-28T04:54:58;100666.59;;;6.63;100.00
59951;BME280;45812;53.540;9.774;2023-12-28T04:57:23;100660.63;;;6.61;100.00
59951;BME280;45812;53.540;9.774;2023-12-28T04:59:53;100660.50;;;6.62;100.00
59951;BME280;45812;53.540;9.774;2023-12-28T05:02:18;100664.09;;;6.61;100.00
59951;BME280;45812;53.540;9.774;2023-12-28T05:04:43;100654.91;;;6.65;100.00
59951;BME280;45812;53.540;9.774;2023-12-28T05:07:09;100667.84;;;6.68;100.00
59951;BME280;45812;53.540;9.774;2023-12-28T05:09:34;100654.22;;;6.63;100.00
59951;BME280;45812;53.540;9.774;2023-12-28T05:11:59;100661.31;;;6.63;100.00
59951;BME280;45812;53.540;9.774;2023-12-28T05:14:24;100656.16;;;6.61;100.00
59951;BME280;45812;53.540;9.774;2023-12-28T05:16:50;100646.28;;;6.63;100.00
59951;BME280;45812;53.540;9.774;2023-12-28T05:19:15;100655.59;;;6.67;100.00
59951;BME280;45812;53.540;9.774;2023-12-28T05:21:41;100657.84;;;6.62;100.00
59951;BME280;45812;53.540;9.774;2023-12-28T05:24:06;100676.34;;;6.62;100.00
59951;BME280;45812;53.540;9.774;2023-12-28T05:26:32;100661.19;;;6.64;100.00
59951;BME280;45812;53.540;9.774;2023-12-28T05:28:57;100669.66;;;6.68;100.00
59951;BME280;45812;53.540;9.774;2023-12-28T05:31:22;100663.69;;;6.66;100.00
59951;BME280;45812;53.540;9.774;2023-12-28T05:33:47;100676.50;;;6.71;100.00
59951;BME280;45812;53.540;9.774;2023-12-28T05:36:13;100653.09;;;6.76;100.00
59951;BME280;45812;53.540;9.774;2023-12-28T05:38:38;100633.31;;;6.80;100.00
59951;BME280;45812;53.540;9.774;2023-12-28T05:41:03;100645.56;;;6.81;100.00
59951;BME280;45812;53.540;9.774;2023-12-28T05:43:28;100650.84;;;6.81;100.00
59951;BME280;45812;53.540;9.774;2023-12-28T05:45:54;100669.53;;;6.79;100.00
59951;BME280;45812;53.540;9.774;2023-12-28T05:48:19;100671.72;;;6.84;100.00
59951;BME280;45812;53.540;9.774;2023-12-28T05:50:44;100675.91;;;6.86;100.00
59951;BME280;45812;53.540;9.774;2023-12-28T05:53:09;100689.28;;;6.85;100.00
59951;BME280;45812;53.540;9.774;2023-12-28T05:55:42;100687.06;;;6.90;100.00
59951;BME280;45812;53.540;9.774;2023-12-28T05:58:08;100688.44;;;6.94;100.00
59951;BME280;45812;53.540;9.774;2023-12-28T06:00:33;100672.69;;;7.02;100.00
59951;BME280;45812;53.540;9.774;2023-12-28T06:03:01;100718.78;;;7.09;100.00
59951;BME280;45812;53.540;9.774;2023-12-28T06:05:26;100677.53;;;7.16;100.00
59951;BME280;45812;53.540;9.774;2023-12-28T06:07:51;100664.97;;;7.18;100.00
59951;BME280;45812;53.540;9.774;2023-12-28T06:10:17;100675.69;;;7.26;100.00
59951;BME280;45812;53.540;9.774;2023-12-28T06:12:42;100671.78;;;7.31;100.00
59951;BME280;45812;53.540;9.774;2023-12-28T06:15:08;100681.09;;;7.35;100.00
59951;BME280;45812;53.540;9.774;2023-12-28T06:17:33;100667.94;;;7.43;100.00
59951;BME280;45812;53.540;9.774;2023-12-28T06:19:58;100675.31;;;7.49;100.00
59951;BME280;45812;53.540;9.774;2023-12-28T06:22:23;100675.19;;;7.50;100.00
59951;BME280;45812;53.540;9.774;2023-12-28T06:24:52;100675.41;;;7.57;100.00
59951;BME280;45812;53.540;9.774;2023-12-28T06:27:17;100672.31;;;7.62;100.00
59951;BME280;45812;53.540;9.774;2023-12-28T06:29:43;100667.75;;;7.64;100.00
59951;BME280;45812;53.540;9.774;2023-12-28T06:32:08;100650.19;;;7.63;100.00
59951;BME280;45812;53.540;9.774;2023-12-28T06:34:33;100682.91;;;7.62;100.00
59951;BME280;45812;53.540;9.774;2023-12-28T06:36:58;100665.09;;;7.64;100.00
59951;BME280;45812;53.540;9.774;2023-12-28T06:39:26;100671.06;;;7.66;100.00
59951;BME280;45812;53.540;9.774;2023-12-28T06:41:51;100660.31;;;7.67;100.00
59951;BME280;45812;53.540;9.774;2023-12-28T06:44:16;100694.75;;;7.67;100.00
59951;BME280;45812;53.540;9.774;2023-12-28T06:46:42;100663.34;;;7.72;100.00
59951;BME280;45812;53.540;9.774;2023-12-28T06:49:07;100661.09;;;7.77;100.00
59951;BME280;45812;53.540;9.774;2023-12-28T06:51:32;100665.13;;;7.81;100.00
59951;BME280;45812;53.540;9.774;2023-12-28T06:53:58;100657.31;;;7.80;100.00
59951;BME280;45812;53.540;9.774;2023-12-28T06:56:24;100667.91;;;7.80;100.00
59951;BME280;45812;53.540;9.774;2023-12-28T06:58:49;100671.53;;;7.79;100.00
59951;BME280;45812;53.540;9.774;2023-12-28T07:01:14;100647.13;;;7.85;100.00
59951;BME280;45812;53.540;9.774;2023-12-28T07:03:40;100642.34;;;7.88;100.00
59951;BME280;45812;53.540;9.774;2023-12-28T07:06:05;100641.66;;;7.86;100.00
59951;BME280;45812;53.540;9.774;2023-12-28T07:08:30;100648.25;;;7.82;100.00
59951;BME280;45812;53.540;9.774;2023-12-28T07:10:56;100659.00;;;7.81;100.00
59951;BME280;45812;53.540;9.774;2023-12-28T07:13:22;100641.84;;;7.75;100.00
59951;BME280;45812;53.540;9.774;2023-12-28T07:15:47;100659.41;;;7.76;100.00
59951;BME280;45812;53.540;9.774;2023-12-28T07:18:12;100641.56;;;7.78;100.00
59951;BME280;45812;53.540;9.774;2023-12-28T07:20:38;100681.16;;;7.80;100.00
59951;BME280;45812;53.540;9.774;2023-12-28T07:23:03;100657.31;;;7.80;100.00
59951;BME280;45812;53.540;9.774;2023-12-28T07:25:28;100667.78;;;7.81;100.00
59951;BME280;45812;53.540;9.774;2023-12-28T07:27:53;100669.44;;;7.82;100.00
59951;BME280;45812;53.540;9.774;2023-12-28T07:30:19;100686.72;;;7.86;100.00
59951;BME280;45812;53.540;9.774;2023-12-28T07:32:44;100660.91;;;7.88;100.00
59951;BME280;45812;53.540;9.774;2023-12-28T07:35:11;100654.16;;;7.94;100.00
59951;BME280;45812;53.540;9.774;2023-12-28T07:37:36;100659.31;;;7.96;100.00
59951;BME280;45812;53.540;9.774;2023-12-28T07:40:01;100705.03;;;7.98;100.00
59951;BME280;45812;53.540;9.774;2023-12-28T07:42:28;100654.25;;;8.02;100.00
59951;BME280;45812;53.540;9.774;2023-12-28T07:44:53;100635.56;;;8.04;100.00
59951;BME280;45812;53.540;9.774;2023-12-28T07:47:19;100637.91;;;8.07;100.00
59951;BME280;45812;53.540;9.774;2023-12-28T07:49:44;100683.94;;;8.06;100.00
59951;BME280;45812;53.540;9.774;2023-12-28T07:52:09;100643.88;;;8.09;100.00
59951;BME280;45812;53.540;9.774;2023-12-28T07:54:34;100633.97;;;8.11;100.00
59951;BME280;45812;53.540;9.774;2023-12-28T07:57:00;100655.00;;;8.12;100.00
59951;BME280;45812;53.540;9.774;2023-12-28T07:59:25;100654.44;;;8.18;100.00
59951;BME280;45812;53.540;9.774;2023-12-28T08:01:50;100667.59;;;8.28;100.00
59951;BME280;45812;53.540;9.774;2023-12-28T08:04:15;100643.72;;;8.38;100.00
59951;BME280;45812;53.540;9.774;2023-12-28T08:06:41;100659.53;;;8.47;100.00
59951;BME280;45812;53.540;9.774;2023-12-28T08:09:06;100675.66;;;8.54;100.00
59951;BME280;45812;53.540;9.774;2023-12-28T08:11:31;100649.72;;;8.66;100.00
59951;BME280;45812;53.540;9.774;2023-12-28T08:13:56;100658.59;;;8.74;100.00
59951;BME280;45812;53.540;9.774;2023-12-28T08:16:22;100672.91;;;8.82;100.00
59951;BME280;45812;53.540;9.774;2023-12-28T08:18:47;100645.06;;;8.86;100.00
59951;BME280;45812;53.540;9.774;2023-12-28T08:21:12;100639.00;;;8.93;100.00
59951;BME280;45812;53.540;9.774;2023-12-28T08:23:37;100648.63;;;8.94;100.00
59951;BME280;45812;53.540;9.774;2023-12-28T08:26:03;100632.88;;;9.01;100.00
59951;BME280;45812;53.540;9.774;2023-12-28T08:28:28;100654.47;;;9.06;100.00
59951;BME280;45812;53.540;9.774;2023-12-28T08:30:56;100643.53;;;9.09;100.00
59951;BME280;45812;53.540;9.774;2023-12-28T08:33:21;100646.03;;;9.10;100.00
59951;BME280;45812;53.540;9.774;2023-12-28T08:35:46;100662.84;;;9.11;100.00
59951;BME280;45812;53.540;9.774;2023-12-28T08:38:12;100635.13;;;9.14;100.00
59951;BME280;45812;53.540;9.774;2023-12-28T08:40:37;100635.81;;;9.16;100.00
59951;BME280;45812;53.540;9.774;2023-12-28T08:43:02;100639.13;;;9.18;100.00
59951;BME280;45812;53.540;9.774;2023-12-28T08:45:27;100667.03;;;9.22;100.00
59951;BME280;45812;53.540;9.774;2023-12-28T08:47:53;100676.03;;;9.29;100.00
59951;BME280;45812;53.540;9.774;2023-12-28T08:50:18;100676.72;;;9.31;100.00
59951;BME280;45812;53.540;9.774;2023-12-28T08:52:43;100650.84;;;9.33;100.00
59951;BME280;45812;53.540;9.774;2023-12-28T08:55:09;100683.53;;;9.33;100.00
59951;BME280;45812;53.540;9.774;2023-12-28T08:57:34;100671.44;;;9.39;100.00
59951;BME280;45812;53.540;9.774;2023-12-28T09:00:00;100661.84;;;9.46;100.00
59951;BME280;45812;53.540;9.774;2023-12-28T09:02:27;100647.28;;;9.50;100.00
59951;BME280;45812;53.540;9.774;2023-12-28T09:04:53;100658.56;;;9.52;100.00
59951;BME280;45812;53.540;9.774;2023-12-28T09:07:18;100671.38;;;9.57;100.00
59951;BME280;45812;53.540;9.774;2023-12-28T09:09:44;100653.28;;;9.60;100.00
59951;BME280;45812;53.540;9.774;2023-12-28T09:12:09;100656.59;;;9.62;100.00
59951;BME280;45812;53.540;9.774;2023-12-28T09:14:35;100652.94;;;9.63;100.00
59951;BME280;45812;53.540;9.774;2023-12-28T09:17:01;100662.81;;;9.71;100.00
59951;BME280;45812;53.540;9.774;2023-12-28T09:19:26;100658.66;;;9.77;100.00
59951;BME280;45812;53.540;9.774;2023-12-28T09:21:51;100661.97;;;9.79;100.00
59951;BME280;45812;53.540;9.774;2023-12-28T09:24:17;100670.31;;;9.84;100.00
59951;BME280;45812;53.540;9.774;2023-12-28T09:26:43;100678.47;;;9.90;100.00
59951;BME280;45812;53.540;9.774;2023-12-28T09:29:09;100675.34;;;9.95;100.00
59951;BME280;45812;53.540;9.774;2023-12-28T09:31:34;100694.44;;;9.90;100.00
59951;BME280;45812;53.540;9.774;2023-12-28T09:33:59;100677.50;;;9.91;100.00
59951;BME280;45812;53.540;9.774;2023-12-28T09:36:25;100676.00;;;9.97;100.00
59951;BME280;45812;53.540;9.774;2023-12-28T09:38:50;100705.97;;;10.07;100.00
59951;BME280;45812;53.540;9.774;2023-12-28T09:41:16;100670.06;;;10.11;100.00
59951;BME280;45812;53.540;9.774;2023-12-28T09:43:54;100667.06;;;10.14;100.00
59951;BME280;45812;53.540;9.774;2023-12-28T09:46:20;100669.41;;;10.17;100.00
59951;BME280;45812;53.540;9.774;2023-12-28T09:48:45;100684.03;;;10.13;100.00
59951;BME280;45812;53.540;9.774;2023-12-28T09:51:11;100674.38;;;10.12;100.00
59951;BME280;45812;53.540;9.774;2023-12-28T09:53:36;100658.09;;;10.15;100.00
59951;BME280;45812;53.540;9.774;2023-12-28T09:56:02;100673.44;;;10.21;100.00
59951;BME280;45812;53.540;9.774;2023-12-28T09:58:28;100679.28;;;10.25;100.00
59951;BME280;45812;53.540;9.774;2023-12-28T10:00:54;100654.84;;;10.29;100.00
59951;BME280;45812;53.540;9.774;2023-12-28T10:03:20;100648.34;;;10.32;100.00
59951;BME280;45812;53.540;9.774;2023-12-28T10:05:46;100649.50;;;10.29;100.00
59951;BME280;45812;53.540;9.774;2023-12-28T10:08:12;100648.69;;;10.29;100.00
59951;BME280;45812;53.540;9.774;2023-12-28T10:10:41;100664.47;;;10.30;100.00
59951;BME280;45812;53.540;9.774;2023-12-28T10:13:07;100667.31;;;10.37;100.00
59951;BME280;45812;53.540;9.774;2023-12-28T10:15:33;100680.44;;;10.39;100.00
59951;BME280;45812;53.540;9.774;2023-12-28T10:17:58;100660.81;;;10.40;99.40
59951;BME280;45812;53.540;9.774;2023-12-28T10:20:27;100658.97;;;10.40;99.88
59951;BME280;45812;53.540;9.774;2023-12-28T10:22:53;100692.75;;;10.40;99.39
59951;BME280;45812;53.540;9.774;2023-12-28T10:25:18;100652.00;;;10.39;99.78
59951;BME280;45812;53.540;9.774;2023-12-28T10:27:43;100682.94;;;10.40;99.98
59951;BME280;45812;53.540;9.774;2023-12-28T10:30:09;100666.47;;;10.37;99.45
59951;BME280;45812;53.540;9.774;2023-12-28T10:32:35;100658.16;;;10.40;99.96
59951;BME280;45812;53.540;9.774;2023-12-28T10:35:01;100663.34;;;10.41;99.58
59951;BME280;45812;53.540;9.774;2023-12-28T10:37:26;100661.81;;;10.39;99.50
59951;BME280;45812;53.540;9.774;2023-12-28T10:39:53;100669.63;;;10.40;99.28
59951;BME280;45812;53.540;9.774;2023-12-28T10:42:28;100671.81;;;10.45;99.31
59951;BME280;45812;53.540;9.774;2023-12-28T10:45:09;100691.59;;;10.42;98.86
59951;BME280;45812;53.540;9.774;2023-12-28T10:47:43;100670.16;;;10.44;98.38
59951;BME280;45812;53.540;9.774;2023-12-28T10:50:10;100673.47;;;10.46;98.47
59951;BME280;45812;53.540;9.774;2023-12-28T10:52:37;100683.44;;;10.52;98.37
59951;BME280;45812;53.540;9.774;2023-12-28T10:55:08;100708.41;;;10.59;97.44
59951;BME280;45812;53.540;9.774;2023-12-28T11:00:25;100668.84;;;10.64;97.11
59951;BME280;45812;53.540;9.774;2023-12-28T11:02:57;100680.81;;;10.68;97.44
59951;BME280;45812;53.540;9.774;2023-12-28T11:05:24;100674.16;;;10.64;96.69
59951;BME280;45812;53.540;9.774;2023-12-28T11:07:52;100681.97;;;10.66;96.68
59951;BME280;45812;53.540;9.774;2023-12-28T11:10:22;100686.13;;;10.68;96.93
59951;BME280;45812;53.540;9.774;2023-12-28T11:12:51;100660.84;;;10.72;96.48
59951;BME280;45812;53.540;9.774;2023-12-28T11:15:17;100662.84;;;10.70;96.55
59951;BME280;45812;53.540;9.774;2023-12-28T11:17:43;100682.63;;;10.76;96.26
59951;BME280;45812;53.540;9.774;2023-12-28T11:20:08;100656.84;;;10.76;97.08
59951;BME280;45812;53.540;9.774;2023-12-28T11:22:35;100657.50;;;10.78;96.32
59951;BME280;45812;53.540;9.774;2023-12-28T11:25:01;100695.94;;;10.76;96.23
59951;BME280;45812;53.540;9.774;2023-12-28T11:27:36;100668.16;;;10.70;96.91
59951;BME280;45812;53.540;9.774;2023-12-28T11:30:06;100661.84;;;10.63;96.58
59951;BME280;45812;53.540;9.774;2023-12-28T11:32:41;100660.50;;;10.59;96.80
59951;BME280;45812;53.540;9.774;2023-12-28T11:35:13;100727.56;;;10.63;97.40
59951;BME280;45812;53.540;9.774;2023-12-28T11:37:48;100674.16;;;10.64;97.16
59951;BME280;45812;53.540;9.774;2023-12-28T11:40:17;100705.09;;;10.65;96.81
59951;BME280;45812;53.540;9.774;2023-12-28T11:42:50;100662.50;;;10.65;97.20
59951;BME280;45812;53.540;9.774;2023-12-28T11:45:17;100668.16;;;10.62;97.14
59951;BME280;45812;53.540;9.774;2023-12-28T11:47:43;100670.16;;;10.60;97.25
59951;BME280;45812;53.540;9.774;2023-12-28T11:50:09;100676.16;;;10.62;96.66
59951;BME280;45812;53.540;9.774;2023-12-28T11:52:34;100667.16;;;10.63;96.60
59951;BME280;45812;53.540;9.774;2023-12-28T11:54:59;100690.44;;;10.69;97.48
59951;BME280;45812;53.540;9.774;2023-12-28T11:57:25;100666.97;;;10.73;96.22
59951;BME280;45812;53.540;9.774;2023-12-28T12:00:00;100653.50;;;10.74;96.09
59951;BME280;45812;53.540;9.774;2023-12-28T12:02:26;100669.97;;;10.78;96.83
59951;BME280;45812;53.540;9.774;2023-12-28T12:04:54;100655.00;;;10.77;95.96
59951;BME280;45812;53.540;9.774;2023-12-28T12:07:19;100649.00;;;10.75;96.89
59951;BME280;45812;53.540;9.774;2023-12-28T12:09:45;100656.34;;;10.73;97.33
59951;BME280;45812;53.540;9.774;2023-12-28T12:12:10;100638.22;;;10.68;96.83
59951;BME280;45812;53.540;9.774;2023-12-28T12:14:36;100641.53;;;10.70;96.80
59951;BME280;45812;53.540;9.774;2023-12-28T12:17:02;100634.88;;;10.82;96.17
59951;BME280;45812;53.540;9.774;2023-12-28T12:19:28;100712.25;;;10.89;95.13
59951;BME280;45812;53.540;9.774;2023-12-28T12:21:54;100684.44;;;10.91;94.19
59951;BME280;45812;53.540;9.774;2023-12-28T12:24:19;100646.81;;;10.95;94.44
59951;BME280;45812;53.540;9.774;2023-12-28T12:26:46;100650.84;;;10.99;94.00
59951;BME280;45812;53.540;9.774;2023-12-28T12:29:11;100679.28;;;11.06;93.85
59951;BME280;45812;53.540;9.774;2023-12-28T12:31:37;100664.63;;;11.10;92.62
59951;BME280;45812;53.540;9.774;2023-12-28T12:34:05;100668.78;;;11.13;93.06
59951;BME280;45812;53.540;9.774;2023-12-28T12:36:30;100674.44;;;11.10;93.86
59951;BME280;45812;53.540;9.774;2023-12-28T12:38:56;100671.47;;;11.05;93.74
59951;BME280;45812;53.540;9.774;2023-12-28T12:41:21;100656.00;;;11.00;94.13
59951;BME280;45812;53.540;9.774;2023-12-28T12:43:46;100652.97;;;10.95;94.20
59951;BME280;45812;53.540;9.774;2023-12-28T12:46:12;100669.81;;;10.87;94.42